Aérodrome :
LOGIN :

S'inscrire | Disclaimer

   EN    FR    IT 

 










Légende :    VFR   VFR Marginal   IFR   IFR Intensif   IFR Très Intensif
Visi : 
Plafond : 
>= 8 km
>= 3000ft
5 à 8 km
1000 à 3000 ft
1500m à 5 km
500 à 1000 ft
800 à 1500m
200 à 500 ft
< 800m
< 200 ft
Symboles :   Orages  Brouillard  Fortes neiges  Fortes précipitations  Vent > 20 kt
SIGMETs :   Divers  Orages  Givrage  Turbulence  Onde Orograph.  Cendres Volcan.







- Altitude de l'aérodrome : 286 ft
- Code IATA : FFD


EGVA - RAF Fairford

DERNIER METAR :
  • 220916Z AUTO 25009KT 9999 -DZ FEW040 BKN055 11/08 A3009 RMK AO2 DZB16 SLP194 $

METARs EXPIRÉS :
  • 220856Z AUTO 27008KT 9999 CLR 11/08 A3009 RMK AO2 SLP194 60000 T01130078 53004 $
  • 220756Z AUTO 23007KT 9999 CLR 11/09 A3007 RMK AO2 SLP187 T01110088 $
  • 220656Z AUTO 24004KT 9999 SCT040 10/09 A3007 RMK AO2 RAB42E53 SLP187 P0000 T01030086 $
  • 220653Z AUTO 24004KT 9999 SCT040 10/09 A3008 RMK AO2 RAB42E53 SLP190 $
  • 220642Z AUTO 24005KT 9999 -RA BKN042 10/09 A3008 RMK AO2 RAB42 SLP190 $
  • 220621Z AUTO 22006KT 8000 M BKN047 OVC055 10/09 A3007 RMK AO2 SLP187 $

Prévision TAF périmée.
Pas de NOTAMs connus pour ce terrain.
3 SIGMETs publiés pour la FIR London (EGTT) :
 
Givrage fort
EGTT SIGMET 05 VALID 221000/221400 EGRR
EGTT LONDON FIR SEV ICE FCST WI N5013 W00212 - N5140 W00530 - N5229 W00432 - N5050 W00005 - N5013 W00212 FL060/150 MOV E 25KT NC=
Turbulence forte
EGTT SIGMET 04 VALID 220600/221000 EGRR
EGTT LONDON FIR SEV TURB FCST WI N5310 E00303 - N5500 W00425 - N5500 E00200 - N5310 E00303 FL220/360 MOV NE 25KT NC=
Givrage fort
EGTT SIGMET 03 VALID 220600/221000 EGRR
EGTT LONDON FIR SEV ICE FCST WI N5000 W00200 - N4928 W00445 - N5055 W00800 - N5100 W00800 - N5220 W00530 - N5000 W00038 - N5000 W00200 FL060/150 MOV E 25KT NC=



MET'MAP, la Météo Aéronautique d'un coup d'oeil ! - Copyright ORBIFLY Décembre 2007 - Disclaimer

ORBIFLY MET'MAP TEAM :

Programmation & Développement : Alexandra Zaïnal
Conception & Développement : Baudouin d'Aumeries
Co-Programmation & Développement : Marc-Olivier Méhu
Soutien technique & logistique : Manuel Goepfert

Contact : metmap@orbifly.com




SOURCES & CREDITS :

   NOAA